createdAt,value
2023-04-10T00:01:19.865Z,12.25
2023-04-10T00:03:48.136Z,12.18
2023-04-10T00:06:16.290Z,12.13
2023-04-10T00:08:44.311Z,12.08
2023-04-10T00:11:12.285Z,12.03
2023-04-10T00:13:43.408Z,11.99
2023-04-10T00:16:11.059Z,11.94
2023-04-10T00:18:39.057Z,11.90
2023-04-10T00:21:08.508Z,11.87
2023-04-10T00:23:36.377Z,11.84
2023-04-10T00:26:04.351Z,11.86
2023-04-10T00:28:32.536Z,11.79
2023-04-10T00:31:00.583Z,11.77
2023-04-10T00:33:28.435Z,11.75
2023-04-10T00:35:56.374Z,11.74
2023-04-10T00:38:23.934Z,11.71
2023-04-10T00:40:51.694Z,11.76
2023-04-10T00:43:20.403Z,11.71
2023-04-10T00:45:49.899Z,11.71
2023-04-10T00:48:18.259Z,11.71
2023-04-10T00:50:47.539Z,11.70
2023-04-10T00:53:15.687Z,11.73
2023-04-10T00:55:42.993Z,11.74
2023-04-10T00:58:14.852Z,11.82
2023-04-10T01:00:42.612Z,11.83
2023-04-10T01:03:10.396Z,11.86
2023-04-10T01:05:45.034Z,11.87
2023-04-10T01:08:18.674Z,11.83
2023-04-10T01:10:48.984Z,11.85
2023-04-10T01:13:36.655Z,11.85
2023-04-10T01:16:11.489Z,11.78
2023-04-10T01:18:44.768Z,11.72
2023-04-10T01:21:12.698Z,11.68
2023-04-10T01:24:10.097Z,11.67
2023-04-10T01:27:17.865Z,11.49
2023-04-10T01:29:47.283Z,11.45
2023-04-10T01:32:21.732Z,11.47
2023-04-10T01:34:52.495Z,11.53
2023-04-10T01:37:28.725Z,11.53
2023-04-10T01:40:02.784Z,11.53
2023-04-10T01:42:40.326Z,11.52
2023-04-10T01:45:08.449Z,11.53
2023-04-10T01:47:36.943Z,11.52
2023-04-10T01:50:06.560Z,11.54
2023-04-10T01:52:34.112Z,11.47
2023-04-10T01:55:02.117Z,11.40
2023-04-10T01:57:31.741Z,11.37
2023-04-10T01:59:59.962Z,11.31
2023-04-10T02:02:31.449Z,11.24
2023-04-10T02:04:59.664Z,11.18
2023-04-10T02:07:51.337Z,11.14
2023-04-10T02:10:21.462Z,11.05
2023-04-10T02:13:20.945Z,11.00
2023-04-10T02:15:48.952Z,10.89
2023-04-10T02:18:17.532Z,10.91
2023-04-10T02:20:44.918Z,10.87
2023-04-10T02:23:12.697Z,10.84
2023-04-10T02:25:40.272Z,10.75
2023-04-10T02:28:08.531Z,10.69
2023-04-10T02:30:36.824Z,10.67
2023-04-10T02:33:05.586Z,10.56
2023-04-10T02:35:34.419Z,10.56
2023-04-10T02:38:01.936Z,10.52
2023-04-10T02:40:29.572Z,10.51
2023-04-10T02:42:57.448Z,10.46
2023-04-10T02:45:25.509Z,10.41
2023-04-10T02:47:53.430Z,10.35
2023-04-10T02:50:20.986Z,10.25
2023-04-10T02:52:48.516Z,10.18
2023-04-10T02:55:16.629Z,10.17
2023-04-10T02:57:44.475Z,10.13
2023-04-10T03:00:15.269Z,10.08
2023-04-10T03:02:43.354Z,10.04
2023-04-10T03:05:11.712Z,10.05
2023-04-10T03:07:39.590Z,10.04
2023-04-10T03:10:10.429Z,10.05
2023-04-10T03:12:38.287Z,10.04
2023-04-10T03:15:08.989Z,10.06
2023-04-10T03:17:37.413Z,10.00
2023-04-10T03:20:06.453Z,9.99
2023-04-10T03:22:35.769Z,9.94
2023-04-10T03:25:03.494Z,9.90
2023-04-10T03:27:32.318Z,9.91
2023-04-10T03:30:00.375Z,9.89
2023-04-10T03:32:28.390Z,9.88
2023-04-10T03:34:56.061Z,9.77
2023-04-10T03:37:24.242Z,9.68
2023-04-10T03:39:52.259Z,9.64
2023-04-10T03:42:19.902Z,9.58
2023-04-10T03:44:47.763Z,9.60
2023-04-10T03:47:16.049Z,9.56
2023-04-10T03:49:43.938Z,9.50
2023-04-10T03:52:11.977Z,9.52
2023-04-10T03:54:40.218Z,9.54
2023-04-10T03:57:08.388Z,9.47
2023-04-10T03:59:38.793Z,9.37
2023-04-10T04:02:08.209Z,9.29
2023-04-10T04:04:36.373Z,9.32
2023-04-10T04:07:04.711Z,9.26
2023-04-10T04:09:32.763Z,9.15
2023-04-10T04:12:00.700Z,9.25
2023-04-10T04:14:28.694Z,9.26
2023-04-10T04:16:56.969Z,9.15
2023-04-10T04:19:24.816Z,9.14
2023-04-10T04:21:53.098Z,9.07
2023-04-10T04:24:21.931Z,9.08
2023-04-10T04:26:49.493Z,9.07
2023-04-10T04:29:17.767Z,9.02
2023-04-10T04:31:45.439Z,9.06
2023-04-10T04:34:13.070Z,8.94
2023-04-10T04:36:40.852Z,8.90
2023-04-10T04:39:08.750Z,8.91
2023-04-10T04:41:36.300Z,8.93
2023-04-10T04:44:04.531Z,8.95
2023-04-10T04:46:32.478Z,8.94
2023-04-10T04:49:00.546Z,8.97
2023-04-10T04:51:28.629Z,8.95
2023-04-10T04:54:00.262Z,8.95
2023-04-10T04:56:28.387Z,9.01
2023-04-10T04:58:56.569Z,9.01
2023-04-10T05:01:24.627Z,9.04
2023-04-10T05:03:52.851Z,9.08
2023-04-10T05:06:21.724Z,9.14
2023-04-10T05:08:49.859Z,9.17
2023-04-10T05:11:17.461Z,9.20
2023-04-10T05:13:45.175Z,9.19
2023-04-10T05:16:13.083Z,9.28
2023-04-10T05:18:41.628Z,9.29
2023-04-10T05:21:09.762Z,9.32
2023-04-10T05:23:37.897Z,9.37
2023-04-10T05:26:06.447Z,9.41
2023-04-10T05:28:34.416Z,9.46
2023-04-10T05:31:02.507Z,9.52
2023-04-10T05:33:30.037Z,9.51
2023-04-10T05:35:57.941Z,9.58
2023-04-10T05:38:25.572Z,9.64
2023-04-10T05:40:53.508Z,9.70
2023-04-10T05:43:22.078Z,9.78
2023-04-10T05:45:50.285Z,9.80
2023-04-10T05:48:19.270Z,9.86
2023-04-10T05:50:48.057Z,9.95
2023-04-10T05:53:15.667Z,10.00
2023-04-10T05:55:43.643Z,10.02
2023-04-10T05:58:14.282Z,10.07
2023-04-10T06:00:42.562Z,10.11
2023-04-10T06:03:10.189Z,10.22
2023-04-10T06:05:38.424Z,10.29
2023-04-10T06:08:06.569Z,10.30
2023-04-10T06:10:34.619Z,10.33
2023-04-10T06:13:02.636Z,10.39
2023-04-10T06:15:30.380Z,10.48
2023-04-10T06:17:58.018Z,10.50
2023-04-10T06:20:26.050Z,10.54
2023-04-10T06:22:54.676Z,10.64
2023-04-10T06:25:25.595Z,10.78
2023-04-10T06:27:53.282Z,10.87
2023-04-10T06:30:21.645Z,10.97
2023-04-10T06:32:49.260Z,11.06
2023-04-10T06:35:17.084Z,11.14
2023-04-10T06:37:45.124Z,11.24
2023-04-10T06:40:14.179Z,11.33
2023-04-10T06:42:41.901Z,11.39
2023-04-10T06:45:11.098Z,11.51
2023-04-10T06:47:39.053Z,11.60
2023-04-10T06:50:08.403Z,11.64
2023-04-10T06:52:36.366Z,11.70
2023-04-10T06:55:05.586Z,11.77
2023-04-10T06:57:33.768Z,11.85
2023-04-10T07:00:01.789Z,11.97
2023-04-10T07:02:29.609Z,12.09
2023-04-10T07:04:57.091Z,12.14
2023-04-10T07:07:24.832Z,12.27
2023-04-10T07:09:52.340Z,12.30
2023-04-10T07:12:20.406Z,12.42
2023-04-10T07:14:48.388Z,12.50
2023-04-10T07:17:16.089Z,12.60
2023-04-10T07:19:44.625Z,12.71
2023-04-10T07:22:12.604Z,12.80
2023-04-10T07:24:40.281Z,12.93
2023-04-10T07:27:08.363Z,13.00
2023-04-10T07:29:35.977Z,13.08
2023-04-10T07:32:04.290Z,13.16
2023-04-10T07:34:31.867Z,13.18
2023-04-10T07:36:59.876Z,13.29
2023-04-10T07:39:27.717Z,13.38
2023-04-10T07:41:55.637Z,13.43
2023-04-10T07:44:23.195Z,13.50
2023-04-10T07:47:01.479Z,13.59
2023-04-10T07:49:29.325Z,13.68
2023-04-10T07:51:57.026Z,13.73
2023-04-10T07:54:24.759Z,13.80
2023-04-10T07:56:55.205Z,13.84
2023-04-10T07:59:23.328Z,13.88
2023-04-10T08:01:51.533Z,13.98
2023-04-10T08:04:19.908Z,14.06
2023-04-10T08:06:48.067Z,14.15
2023-04-10T08:09:15.708Z,14.21
2023-04-10T08:11:43.920Z,14.29
2023-04-10T08:14:13.531Z,14.32
2023-04-10T08:16:46.592Z,14.33
2023-04-10T08:19:14.456Z,14.35
2023-04-10T08:21:42.310Z,14.36
2023-04-10T08:24:09.944Z,14.41
2023-04-10T08:26:37.778Z,14.51
2023-04-10T08:29:05.635Z,14.65
2023-04-10T08:31:34.146Z,14.72
2023-04-10T08:34:02.084Z,14.77
2023-04-10T08:36:29.973Z,14.90
2023-04-10T08:38:58.020Z,14.95
2023-04-10T08:41:25.741Z,15.07
2023-04-10T08:43:53.765Z,15.07
2023-04-10T08:46:21.192Z,15.15
2023-04-10T08:49:00.532Z,15.23
2023-04-10T08:51:32.299Z,15.32
2023-04-10T08:54:02.496Z,15.39
2023-04-10T08:56:29.745Z,15.46
2023-04-10T08:58:57.511Z,15.50
2023-04-10T09:01:25.748Z,15.55
2023-04-10T09:03:54.036Z,15.67
2023-04-10T09:06:25.931Z,15.68
2023-04-10T09:08:53.964Z,15.71
2023-04-10T09:11:21.903Z,15.84
2023-04-10T09:13:49.651Z,15.95
2023-04-10T09:16:17.721Z,15.98
2023-04-10T09:18:50.995Z,15.89
2023-04-10T09:21:20.486Z,15.98
2023-04-10T09:23:49.798Z,16.15
2023-04-10T09:26:26.114Z,16.26
2023-04-10T09:29:07.002Z,16.16
2023-04-10T09:31:34.927Z,16.05
2023-04-10T09:34:07.768Z,15.95
2023-04-10T09:36:35.457Z,15.97
2023-04-10T09:39:05.275Z,16.02
2023-04-10T09:41:33.227Z,16.06
2023-04-10T09:44:11.519Z,15.96
2023-04-10T09:46:42.229Z,16.08
2023-04-10T09:49:10.129Z,16.08
2023-04-10T09:51:39.512Z,16.02
2023-04-10T09:54:07.245Z,16.05
2023-04-10T09:56:35.542Z,16.08
2023-04-10T09:59:04.852Z,16.00
2023-04-10T10:01:34.727Z,15.97
2023-04-10T10:04:03.342Z,15.89
2023-04-10T10:06:33.752Z,15.96
2023-04-10T10:09:05.375Z,15.99
2023-04-10T10:11:36.043Z,16.21
2023-04-10T10:14:04.663Z,16.21
2023-04-10T10:16:58.418Z,16.14
2023-04-10T10:19:39.238Z,16.28
2023-04-10T10:22:26.717Z,16.47
2023-04-10T10:24:56.792Z,16.55
2023-04-10T10:27:24.197Z,16.60
2023-04-10T10:29:51.969Z,16.62
2023-04-10T10:32:22.856Z,16.59
2023-04-10T10:34:53.078Z,16.70
2023-04-10T10:37:42.972Z,16.73
2023-04-10T10:40:15.309Z,16.94
2023-04-10T10:42:56.548Z,17.04
2023-04-10T10:45:56.094Z,17.10
2023-04-10T10:48:29.549Z,17.26
2023-04-10T10:50:59.067Z,17.29
2023-04-10T10:53:46.550Z,17.46
2023-04-10T10:56:19.454Z,17.87
2023-04-10T10:58:50.791Z,18.00
2023-04-10T11:01:18.333Z,18.36
2023-04-10T11:03:46.615Z,18.49
2023-04-10T11:06:17.256Z,18.83
2023-04-10T11:08:48.000Z,18.99
2023-04-10T11:11:20.182Z,19.28
2023-04-10T11:13:50.261Z,19.59
2023-04-10T11:16:18.563Z,19.83
2023-04-10T11:18:45.253Z,20.32
2023-04-10T11:21:17.270Z,20.09
2023-04-10T11:23:50.502Z,20.16
2023-04-10T11:26:35.906Z,20.01
2023-04-10T11:29:17.909Z,19.68
2023-04-10T11:31:45.550Z,19.93
2023-04-10T11:34:12.776Z,20.21
2023-04-10T11:36:43.581Z,20.33
2023-04-10T11:39:16.041Z,20.24
2023-04-10T11:41:49.236Z,20.13
2023-04-10T11:44:17.914Z,20.19
2023-04-10T11:46:47.302Z,20.65
2023-04-10T11:49:19.811Z,21.20
2023-04-10T11:51:50.374Z,21.47
2023-04-10T11:54:18.518Z,21.47
2023-04-10T11:56:55.414Z,21.72
2023-04-10T11:59:23.948Z,21.92
2023-04-10T12:01:54.180Z,21.86
2023-04-10T12:04:23.671Z,21.63
2023-04-10T12:06:56.013Z,21.88
2023-04-10T12:09:23.140Z,22.29
2023-04-10T12:12:00.617Z,22.17
2023-04-10T12:14:34.440Z,22.33
2023-04-10T12:17:02.577Z,22.67
2023-04-10T12:19:29.913Z,22.80
2023-04-10T12:21:57.501Z,23.30
2023-04-10T12:24:54.018Z,23.80
2023-04-10T12:27:27.763Z,24.24
2023-04-10T12:29:57.086Z,24.67
2023-04-10T12:32:25.144Z,25.24
2023-04-10T12:34:58.611Z,25.21
2023-04-10T12:37:30.342Z,25.48
2023-04-10T12:40:27.826Z,25.65
2023-04-10T12:42:55.666Z,26.11
2023-04-10T12:45:23.623Z,26.55
2023-04-10T12:47:53.794Z,26.09
2023-04-10T12:50:21.750Z,25.94
2023-04-10T12:53:09.525Z,25.97
2023-04-10T12:55:37.659Z,26.08
2023-04-10T12:58:18.404Z,26.28
2023-04-10T13:00:46.740Z,26.55
2023-04-10T13:03:14.379Z,26.92
2023-04-10T13:05:46.093Z,26.88
2023-04-10T13:08:14.746Z,26.84
2023-04-10T13:10:43.640Z,27.08
2023-04-10T13:13:14.421Z,27.03
2023-04-10T13:15:42.898Z,26.97
2023-04-10T13:18:10.898Z,26.88
2023-04-10T13:20:39.922Z,26.96
2023-04-10T13:23:08.005Z,27.13
2023-04-10T13:25:40.031Z,26.89
2023-04-10T13:28:11.546Z,26.96
2023-04-10T13:30:40.405Z,26.58
2023-04-10T13:33:08.587Z,27.37
2023-04-10T13:35:36.487Z,27.94
2023-04-10T13:38:04.978Z,28.23
2023-04-10T13:40:34.965Z,28.40
2023-04-10T13:43:03.352Z,28.17
2023-04-10T13:45:31.071Z,28.33
2023-04-10T13:47:59.218Z,28.19
2023-04-10T13:50:27.715Z,28.24
2023-04-10T13:52:55.674Z,28.44
2023-04-10T13:55:23.206Z,28.23
2023-04-10T13:57:50.986Z,28.44
2023-04-10T14:00:19.919Z,28.50
2023-04-10T14:02:47.790Z,28.42
2023-04-10T14:05:15.467Z,28.63
2023-04-10T14:07:43.082Z,29.06
2023-04-10T14:10:12.624Z,28.68
2023-04-10T14:12:40.315Z,28.28
2023-04-10T14:15:10.785Z,26.85
2023-04-10T14:17:38.861Z,26.78
2023-04-10T14:20:11.587Z,27.35
2023-04-10T14:22:39.685Z,27.72
2023-04-10T14:25:15.925Z,28.22
2023-04-10T14:27:43.685Z,28.67
2023-04-10T14:30:12.540Z,28.52
2023-04-10T14:32:40.520Z,28.76
2023-04-10T14:35:08.066Z,28.75
2023-04-10T14:37:36.113Z,28.58
2023-04-10T14:40:05.043Z,28.90
2023-04-10T14:42:36.497Z,28.90
2023-04-10T14:45:05.665Z,28.50
2023-04-10T14:47:33.314Z,28.54
2023-04-10T14:50:01.387Z,28.77
2023-04-10T14:52:29.045Z,28.67
2023-04-10T14:54:57.603Z,28.42
2023-04-10T14:57:25.571Z,28.63
2023-04-10T14:59:54.694Z,28.42
2023-04-10T15:02:22.910Z,27.69
2023-04-10T15:04:50.848Z,26.96
2023-04-10T15:07:18.995Z,26.49
2023-04-10T15:09:46.604Z,25.83
2023-04-10T15:12:14.669Z,25.42
2023-04-10T15:14:42.985Z,24.99
2023-04-10T15:17:11.124Z,24.78
2023-04-10T15:19:39.291Z,24.33
2023-04-10T15:22:07.321Z,23.93
2023-04-10T15:24:47.070Z,23.80
2023-04-10T15:27:19.230Z,23.72
2023-04-10T15:29:47.392Z,23.82
2023-04-10T15:32:15.635Z,24.42
2023-04-10T15:34:48.424Z,24.93
2023-04-10T15:37:16.320Z,25.42
2023-04-10T15:39:44.644Z,25.91
2023-04-10T15:42:12.215Z,26.13
2023-04-10T15:44:40.127Z,26.45
2023-04-10T15:47:08.210Z,26.74
2023-04-10T15:49:38.738Z,26.91
2023-04-10T15:52:10.991Z,27.14
2023-04-10T15:54:39.588Z,26.67
2023-04-10T15:57:07.583Z,26.06
2023-04-10T15:59:35.957Z,25.46
2023-04-10T16:02:03.689Z,24.74
2023-04-10T16:04:31.870Z,24.01
2023-04-10T16:06:59.520Z,23.56
2023-04-10T16:09:27.395Z,23.08
2023-04-10T16:11:56.111Z,23.11
2023-04-10T16:14:23.846Z,23.09
2023-04-10T16:16:51.467Z,22.81
2023-04-10T16:19:22.095Z,22.63
2023-04-10T16:21:50.356Z,22.43
2023-04-10T16:24:18.197Z,22.49
2023-04-10T16:26:46.155Z,22.51
2023-04-10T16:29:13.669Z,22.55
2023-04-10T16:31:41.866Z,22.53
2023-04-10T16:34:10.127Z,22.59
2023-04-10T16:36:38.804Z,22.71
2023-04-10T16:39:07.429Z,23.00
2023-04-10T16:41:34.588Z,23.32
2023-04-10T16:44:02.065Z,23.57
2023-04-10T16:46:31.362Z,23.62
2023-04-10T16:48:59.113Z,23.40
2023-04-10T16:51:27.544Z,23.27
2023-04-10T16:53:55.602Z,22.90
2023-04-10T16:56:29.245Z,22.49
2023-04-10T16:58:57.493Z,21.90
2023-04-10T17:01:25.677Z,21.27
2023-04-10T17:03:54.280Z,20.91
2023-04-10T17:06:22.293Z,20.69
2023-04-10T17:08:50.226Z,20.48
2023-04-10T17:11:17.773Z,20.25
2023-04-10T17:13:46.608Z,20.07
2023-04-10T17:16:14.639Z,19.85
2023-04-10T17:18:42.895Z,19.66
2023-04-10T17:21:13.360Z,19.52
2023-04-10T17:23:41.323Z,19.37
2023-04-10T17:26:14.675Z,19.17
2023-04-10T17:28:46.588Z,19.03
2023-04-10T17:31:14.994Z,18.89
2023-04-10T17:33:42.977Z,18.77
2023-04-10T17:36:13.615Z,18.68
2023-04-10T17:38:41.449Z,18.56
2023-04-10T17:41:09.299Z,18.52
2023-04-10T17:43:37.048Z,18.40
2023-04-10T17:46:05.323Z,18.19
2023-04-10T17:48:34.582Z,18.11
2023-04-10T17:51:06.841Z,17.95
2023-04-10T17:53:34.343Z,17.88
2023-04-10T17:56:02.872Z,17.86
2023-04-10T17:58:31.150Z,17.78
2023-04-10T18:00:58.873Z,17.71
2023-04-10T18:03:26.597Z,17.65
2023-04-10T18:05:54.691Z,17.57
2023-04-10T18:08:22.775Z,17.49
2023-04-10T18:10:50.365Z,17.36
2023-04-10T18:13:18.492Z,17.30
2023-04-10T18:15:47.682Z,17.24
2023-04-10T18:18:15.682Z,17.15
2023-04-10T18:20:43.295Z,17.12
2023-04-10T18:23:11.253Z,16.98
2023-04-10T18:25:39.862Z,16.92
2023-04-10T18:30:39.659Z,16.78
2023-04-10T18:33:14.961Z,16.67
2023-04-10T18:35:42.562Z,16.58
2023-04-10T18:38:10.545Z,16.49
2023-04-10T18:40:38.493Z,16.45
2023-04-10T18:43:06.392Z,16.37
2023-04-10T18:45:34.299Z,16.32
2023-04-10T18:48:02.490Z,16.31
2023-04-10T18:50:31.089Z,16.18
2023-04-10T18:52:58.773Z,16.12
2023-04-10T18:55:26.374Z,16.15
2023-04-10T18:57:54.677Z,16.20
2023-04-10T19:00:24.189Z,16.14
2023-04-10T19:02:52.348Z,16.15
2023-04-10T19:05:20.497Z,16.11
2023-04-10T19:08:00.650Z,16.05
2023-04-10T19:10:31.769Z,15.97
2023-04-10T19:12:59.934Z,15.89
2023-04-10T19:15:27.939Z,15.78
2023-04-10T19:17:55.752Z,15.70
2023-04-10T19:20:52.419Z,15.69
2023-04-10T19:23:11.423Z,15.60
2023-04-10T19:25:39.381Z,15.51
2023-04-10T19:28:07.247Z,15.50
2023-04-10T19:30:35.319Z,15.42
2023-04-10T19:33:04.256Z,15.44
2023-04-10T19:35:32.238Z,15.45
2023-04-10T19:37:59.872Z,15.45
2023-04-10T19:40:27.902Z,15.44
2023-04-10T19:42:57.431Z,15.40
2023-04-10T19:45:29.533Z,15.42
2023-04-10T19:47:57.636Z,15.40
2023-04-10T19:50:45.884Z,15.47
2023-04-10T19:53:15.659Z,15.53
2023-04-10T19:55:45.080Z,15.50
2023-04-10T19:58:29.902Z,15.48
2023-04-10T20:01:24.734Z,15.49
2023-04-10T20:03:52.564Z,15.47
2023-04-10T20:06:21.819Z,15.43
2023-04-10T20:08:49.632Z,15.39
2023-04-10T20:11:17.230Z,15.42
2023-04-10T20:13:44.708Z,15.43
2023-04-10T20:16:12.500Z,15.43
2023-04-10T20:18:40.793Z,15.39
2023-04-10T20:21:09.170Z,15.39
2023-04-10T20:23:38.065Z,15.37
2023-04-10T20:26:06.478Z,15.36
2023-04-10T20:28:34.169Z,15.33
2023-04-10T20:31:02.123Z,15.35
2023-04-10T20:33:30.058Z,15.29
2023-04-10T20:35:58.024Z,15.15
2023-04-10T20:38:25.853Z,14.93
2023-04-10T20:40:54.082Z,14.76
2023-04-10T20:43:22.059Z,14.62
2023-04-10T20:45:50.098Z,14.49
2023-04-10T20:48:17.733Z,14.36
2023-04-10T20:50:46.788Z,14.27
2023-04-10T20:53:14.965Z,14.26
2023-04-10T20:55:43.516Z,14.21
2023-04-10T20:58:11.002Z,14.09
2023-04-10T21:00:39.696Z,14.12
2023-04-10T21:03:08.156Z,14.14
2023-04-10T21:05:39.472Z,14.11
2023-04-10T21:08:07.607Z,14.03
2023-04-10T21:10:35.293Z,13.83
2023-04-10T21:13:04.118Z,13.70
2023-04-10T21:15:31.731Z,13.59
2023-04-10T21:17:59.868Z,13.53
2023-04-10T21:20:27.962Z,13.44
2023-04-10T21:22:56.149Z,13.39
2023-04-10T21:25:24.122Z,13.36
2023-04-10T21:27:52.191Z,13.38
2023-04-10T21:30:21.962Z,13.40
2023-04-10T21:32:49.435Z,13.47
2023-04-10T21:35:17.855Z,13.45
2023-04-10T21:37:46.011Z,13.40
2023-04-10T21:40:16.471Z,13.45
2023-04-10T21:42:44.583Z,13.53
2023-04-10T21:45:15.822Z,13.60
2023-04-10T21:47:43.673Z,13.63
2023-04-10T21:50:12.588Z,13.63
2023-04-10T21:52:40.145Z,13.58
2023-04-10T21:55:11.470Z,13.60
2023-04-10T21:57:39.786Z,13.63
2023-04-10T22:00:10.317Z,13.67
2023-04-10T22:02:38.443Z,13.66
2023-04-10T22:05:05.774Z,13.63
2023-04-10T22:07:33.861Z,13.63
2023-04-10T22:10:01.265Z,13.49
2023-04-10T22:12:29.636Z,13.36
2023-04-10T22:14:57.759Z,13.37
2023-04-10T22:17:25.763Z,13.35
2023-04-10T22:19:53.662Z,13.35
2023-04-10T22:22:21.787Z,13.33
2023-04-10T22:24:49.807Z,13.31
2023-04-10T22:27:18.101Z,13.21
2023-04-10T22:29:56.206Z,13.13
2023-04-10T22:32:30.619Z,13.07
2023-04-10T22:35:00.287Z,12.97
2023-04-10T22:37:28.250Z,12.91
2023-04-10T22:39:56.367Z,12.83
2023-04-10T22:42:24.771Z,12.80
2023-04-10T22:44:53.081Z,12.80
2023-04-10T22:47:20.645Z,12.88
2023-04-10T22:49:48.227Z,12.89
2023-04-10T22:52:16.337Z,12.89
2023-04-10T22:54:44.443Z,12.91
2023-04-10T22:57:12.541Z,12.83
2023-04-10T22:59:40.518Z,12.81
2023-04-10T23:02:08.644Z,12.69
2023-04-10T23:04:36.161Z,12.66
2023-04-10T23:07:04.037Z,12.76
2023-04-10T23:09:32.810Z,12.78
2023-04-10T23:12:01.427Z,12.77
2023-04-10T23:14:29.758Z,12.67
2023-04-10T23:16:57.753Z,12.68
2023-04-10T23:19:25.986Z,12.71
2023-04-10T23:21:53.726Z,12.79
2023-04-10T23:24:21.785Z,12.87
2023-04-10T23:26:49.248Z,12.83
2023-04-10T23:29:17.247Z,12.78
2023-04-10T23:31:45.261Z,12.60
2023-04-10T23:34:12.988Z,12.51
2023-04-10T23:36:42.796Z,12.44
2023-04-10T23:39:10.409Z,12.42
2023-04-10T23:41:38.172Z,12.46
2023-04-10T23:44:06.437Z,12.41
2023-04-10T23:46:34.518Z,12.41
2023-04-10T23:49:02.415Z,12.45
2023-04-10T23:51:32.036Z,12.51
2023-04-10T23:53:59.617Z,12.57
2023-04-10T23:56:29.382Z,12.53
2023-04-10T23:58:56.995Z,12.44
